Relevés stations proches


LFBH - La Rochelle, Charente Maritime
Mise à jour: 22/10/2018 08:30
Clair
Clair
 Wind from NE
Vent: NE 20 km/h
Température: 13°C
Point de rosée: 10°C
Humidité: 82%
Baromètre: 1028 hPa
Ciel: Clair
Visibilité: Supérieure à 10 km
2018/10/22 08:30 LFBH 220830Z AUTO 04011KT CAVOK 13/10 Q1028 TEMPO BKN010 BECMG 03015G25KT
LFBC - Cognac, Charente
Mise à jour: 22/10/2018 08:30
Clair
Clair
 Wind from NNE
Vent: NNE 17 km/h
Température: 12°C
Point de rosée: 8°C
Humidité: 77%
Baromètre: 1026 hPa
Ciel: Clair
Visibilité: Supérieure à 10 km
2018/10/22 08:30 LFBC 220830Z AUTO 02009KT CAVOK 12/08 Q1026 NOSIG
 
LFBU - Angoulème, Charente
Mise à jour: 22/10/2018 08:30
Clair
Clair
 Wind from NNE
Vent: NNE 20 km/h
Température: 10°C
Refroidissement éolien: 7°C
Point de rosée: 7°C
Humidité: 82%
Baromètre: 1027 hPa
Ciel: Clair
Visibilité: Supérieure à 10 km
2018/10/22 08:30 LFBU 220830Z AUTO 02011KT CAVOK 10/07 Q1027 BECMG 02015G25KT
LFRI - La Roche sur Yon, Vendée
Mise à jour: 22/10/2018 08:30
Partiellement nuageux
Partiellement nuageux
 Wind from NNE
Vent: NNE 19 km/h
Température: 12°C
Point de rosée: 11°C
Humidité: 94%
Baromètre: 1029 hPa
Ciel: Partiellement nuageux
Visibilité: 6 km
Détails plafond nuageux: Partiellement nuageux 244 m
2018/10/22 08:30 LFRI 220830Z AUTO 03010KT 6000 SCT008 12/11 Q1029 BECMG 3000 BR
 
LFBI - Poitiers, Vienne
Mise à jour: 22/10/2018 08:30
Peu nuageux
Peu nuageux
 Wind from NNE
Vent: NNE 20 km/h
Température: 13°C
Point de rosée: 9°C
Humidité: 77%
Baromètre: 1028 hPa
Ciel: Peu nuageux
Visibilité: 10 km
Détails plafond nuageux: Peu nuageux 1341 m
2018/10/22 08:30 LFBI 220830Z AUTO 02011KT 9999 FEW044 13/09 Q1028 NOSIG
LFRS - Nantes, Loire Atlantique
Mise à jour: 22/10/2018 08:30
Couvert
Couvert
 Wind from N
Vent: N 13 km/h
Température: 14°C
Point de rosée: 12°C
Humidité: 88%
Baromètre: 1030 hPa
Ciel: Couvert
Visibilité: 6 km
Détails plafond nuageux: Partiellement nuageux 305 m
Couvert 610 m
2018/10/22 08:30 LFRS 220830Z AUTO 01007KT 340V050 6000 SCT010 OVC020 14/12 Q1030 TEMPO 4500 BR BKN008
 
LFBD - Bordeaux, Gironde
Mise à jour: 22/10/2018 08:30
Clair
Clair
 Wind from N
Vent: N 19 km/h
Température: 13°C
Point de rosée: 7°C
Humidité: 67%
Baromètre: 1026 hPa
Ciel: Clair
Visibilité: Supérieure à 10 km
2018/10/22 08:30 LFBD 220830Z AUTO 01010KT CAVOK 13/07 Q1026 NOSIG
LFBL - Limoges, Haute Vienne
Mise à jour: 22/10/2018 08:30
Clair
Clair
 Wind from NE
Vent: NE 17 km/h
Température: 13°C
Point de rosée: 5°C
Humidité: 59%
Baromètre: 1026 hPa
Ciel: Clair
Visibilité: Supérieure à 10 km
2018/10/22 08:30 LFBL 220830Z AUTO 05009KT CAVOK 13/05 Q1026 NOSIG